createdAt,value
2023-01-27T00:01:17.958Z,6.22
2023-01-27T00:04:39.875Z,6.47
2023-01-27T00:08:01.847Z,6.57
2023-01-27T00:11:42.715Z,5.78
2023-01-27T00:15:06.414Z,5.18
2023-01-27T00:18:28.320Z,6.07
2023-01-27T00:22:09.101Z,5.57
2023-01-27T00:25:32.359Z,5.70
2023-01-27T00:28:54.396Z,6.15
2023-01-27T00:32:34.965Z,5.30
2023-01-27T00:36:08.066Z,5.72
2023-01-27T00:39:30.081Z,5.90
2023-01-27T00:42:52.059Z,6.57
2023-01-27T00:46:14.827Z,5.55
2023-01-27T00:49:36.792Z,5.40
2023-01-27T00:53:02.338Z,5.57
2023-01-27T00:56:24.320Z,5.70
2023-01-27T00:59:46.330Z,5.20
2023-01-27T01:03:08.584Z,6.18
2023-01-27T01:06:30.687Z,5.50
2023-01-27T01:09:52.714Z,5.70
2023-01-27T01:13:14.841Z,5.80
2023-01-27T01:16:36.941Z,4.82
2023-01-27T01:19:58.895Z,5.15
2023-01-27T01:23:20.900Z,4.65
2023-01-27T01:26:42.858Z,5.03
2023-01-27T01:30:05.429Z,5.85
2023-01-27T01:33:27.367Z,5.20
2023-01-27T01:36:49.294Z,5.72
2023-01-27T01:40:15.119Z,4.55
2023-01-27T01:43:37.148Z,6.05
2023-01-27T01:47:00.069Z,5.57
2023-01-27T01:50:22.238Z,5.35
2023-01-27T01:53:51.405Z,4.97
2023-01-27T01:57:18.903Z,6.03
2023-01-27T02:00:41.744Z,5.45
2023-01-27T02:04:08.920Z,5.93
2023-01-27T02:07:46.031Z,5.18
2023-01-27T02:11:08.746Z,5.45
2023-01-27T02:14:33.598Z,5.32
2023-01-27T02:17:55.894Z,5.65
2023-01-27T02:21:18.048Z,5.75
2023-01-27T02:24:48.987Z,5.22
2023-01-27T02:28:11.076Z,5.70
2023-01-27T02:31:33.325Z,4.93
2023-01-27T02:34:57.531Z,5.53
2023-01-27T02:38:20.934Z,5.70
2023-01-27T02:41:54.926Z,5.93
2023-01-27T02:45:17.032Z,4.72
2023-01-27T02:48:39.028Z,5.63
2023-01-27T02:52:01.181Z,5.50
2023-01-27T02:55:23.292Z,5.20
2023-01-27T02:58:46.853Z,5.53
2023-01-27T03:02:22.893Z,6.43
2023-01-27T03:05:46.146Z,5.97
2023-01-27T03:09:08.211Z,5.65
2023-01-27T03:12:30.201Z,6.03
2023-01-27T03:16:13.387Z,5.28
2023-01-27T03:19:36.440Z,5.35
2023-01-27T03:22:58.917Z,5.60
2023-01-27T03:26:21.400Z,5.18
2023-01-27T03:29:58.039Z,6.63
2023-01-27T03:33:20.962Z,5.93
2023-01-27T03:37:12.535Z,6.38
2023-01-27T03:40:53.701Z,5.88
2023-01-27T03:44:34.330Z,6.80
2023-01-27T03:47:56.409Z,6.20
2023-01-27T03:51:20.305Z,5.80
2023-01-27T03:54:42.261Z,7.00
2023-01-27T03:58:19.640Z,5.95
2023-01-27T04:01:43.827Z,5.95
2023-01-27T04:05:25.119Z,6.32
2023-01-27T04:08:47.125Z,6.85
2023-01-27T04:12:10.370Z,6.15
2023-01-27T04:15:32.404Z,6.90
2023-01-27T04:18:55.093Z,6.25
2023-01-27T04:22:17.527Z,6.40
2023-01-27T04:25:39.502Z,5.88
2023-01-27T04:29:04.870Z,6.18
2023-01-27T04:32:27.525Z,5.88
2023-01-27T04:35:51.154Z,5.13
2023-01-27T04:39:14.179Z,5.43
2023-01-27T04:42:36.360Z,5.38
2023-01-27T04:45:58.351Z,6.03
2023-01-27T04:49:20.425Z,5.47
2023-01-27T04:52:42.370Z,6.38
2023-01-27T04:56:07.665Z,5.43
2023-01-27T04:59:29.891Z,4.78
2023-01-27T05:02:51.884Z,5.28
2023-01-27T05:06:14.162Z,5.95
2023-01-27T05:09:36.161Z,5.45
2023-01-27T05:12:58.612Z,4.72
2023-01-27T05:16:22.949Z,5.10
2023-01-27T05:19:44.987Z,5.22
2023-01-27T05:23:25.728Z,5.82
2023-01-27T05:26:48.494Z,4.65
2023-01-27T05:30:11.149Z,5.25
2023-01-27T05:33:33.519Z,5.22
2023-01-27T05:36:55.624Z,5.07
2023-01-27T05:40:18.134Z,4.75
2023-01-27T05:43:41.840Z,4.57
2023-01-27T05:47:03.793Z,5.25
2023-01-27T05:50:25.793Z,4.47
2023-01-27T05:53:48.116Z,5.60
2023-01-27T05:57:10.042Z,4.88
2023-01-27T06:00:32.175Z,4.80
2023-01-27T06:03:54.602Z,4.70
2023-01-27T06:07:16.564Z,4.80
2023-01-27T06:10:38.489Z,4.55
2023-01-27T06:14:00.416Z,4.88
2023-01-27T06:17:22.512Z,4.78
2023-01-27T06:20:45.518Z,5.20
2023-01-27T06:24:07.754Z,5.53
2023-01-27T06:27:29.715Z,5.85
2023-01-27T06:30:52.205Z,5.78
2023-01-27T06:34:14.174Z,5.47
2023-01-27T06:37:36.853Z,5.20
2023-01-27T06:40:59.494Z,4.68
2023-01-27T06:44:21.390Z,4.68
2023-01-27T06:47:43.337Z,5.00
2023-01-27T06:51:05.491Z,5.05
2023-01-27T06:54:27.460Z,4.20
2023-01-27T06:57:49.637Z,3.53
2023-01-27T07:01:11.945Z,3.83
2023-01-27T07:04:33.926Z,4.43
2023-01-27T07:07:55.865Z,4.90
2023-01-27T07:11:17.911Z,4.78
2023-01-27T07:14:39.948Z,3.60
2023-01-27T07:18:03.186Z,4.47
2023-01-27T07:21:26.150Z,4.47
2023-01-27T07:24:48.279Z,4.60
2023-01-27T07:28:10.465Z,4.43
2023-01-27T07:31:33.886Z,3.45
2023-01-27T07:34:55.977Z,4.10
2023-01-27T07:38:20.124Z,4.28
2023-01-27T07:41:42.699Z,4.30
2023-01-27T07:45:09.930Z,4.45
2023-01-27T07:48:32.165Z,4.82
2023-01-27T07:51:54.299Z,4.28
2023-01-27T07:55:16.367Z,3.88
2023-01-27T07:58:42.323Z,3.92
2023-01-27T08:02:04.351Z,3.92
2023-01-27T08:05:27.446Z,4.22
2023-01-27T08:08:49.446Z,3.95
2023-01-27T08:12:11.417Z,4.90
2023-01-27T08:15:33.450Z,3.85
2023-01-27T08:18:55.909Z,4.10
2023-01-27T08:22:21.269Z,4.20
2023-01-27T08:25:52.609Z,4.18
2023-01-27T08:29:15.438Z,5.07
2023-01-27T08:32:37.442Z,4.30
2023-01-27T08:36:04.892Z,4.28
2023-01-27T08:39:26.981Z,3.80
2023-01-27T08:42:50.896Z,4.22
2023-01-27T08:46:13.705Z,4.70
2023-01-27T08:49:35.650Z,4.00
2023-01-27T08:52:59.285Z,4.28
2023-01-27T08:56:21.272Z,4.53
2023-01-27T08:59:43.267Z,5.07
2023-01-27T09:03:05.271Z,5.07
2023-01-27T09:06:27.250Z,4.53
2023-01-27T09:09:51.272Z,5.28
2023-01-27T09:13:18.302Z,5.15
2023-01-27T09:16:40.261Z,6.20
2023-01-27T09:20:02.239Z,5.18
2023-01-27T09:23:24.990Z,5.38
2023-01-27T09:26:47.056Z,5.32
2023-01-27T09:30:11.461Z,5.63
2023-01-27T09:33:33.672Z,5.40
2023-01-27T09:37:02.714Z,6.05
2023-01-27T09:40:33.948Z,5.57
2023-01-27T09:44:05.036Z,5.80
2023-01-27T09:47:52.586Z,5.93
2023-01-27T09:51:33.251Z,5.40
2023-01-27T09:58:28.933Z,4.70
2023-01-27T10:02:16.078Z,5.93
2023-01-27T10:06:34.499Z,3.72
2023-01-27T10:10:12.468Z,5.38
2023-01-27T10:13:43.262Z,4.93
2023-01-27T10:17:26.436Z,4.50
2023-01-27T10:21:09.823Z,5.55
2023-01-27T10:24:50.337Z,5.75
2023-01-27T10:28:16.084Z,5.00
2023-01-27T10:31:54.225Z,5.05
2023-01-27T10:35:22.948Z,5.82
2023-01-27T10:38:58.761Z,4.47
2023-01-27T10:42:35.875Z,4.28
2023-01-27T10:46:37.881Z,4.50
2023-01-27T10:50:09.451Z,5.00
2023-01-27T10:53:53.014Z,4.63
2023-01-27T10:57:21.856Z,4.20
2023-01-27T11:01:18.067Z,3.78
2023-01-27T11:04:43.493Z,3.95
2023-01-27T11:08:20.798Z,5.07
2023-01-27T11:11:44.714Z,4.97
2023-01-27T11:15:30.311Z,4.65
2023-01-27T11:18:58.014Z,4.03
2023-01-27T11:22:41.694Z,4.53
2023-01-27T11:26:34.444Z,5.13
2023-01-27T11:30:02.922Z,3.80
2023-01-27T11:33:30.214Z,3.92
2023-01-27T11:36:52.679Z,4.05
2023-01-27T11:40:25.452Z,3.35
2023-01-27T11:43:47.677Z,4.40
2023-01-27T11:47:23.322Z,4.53
2023-01-27T11:50:46.124Z,4.60
2023-01-27T11:54:17.170Z,4.50
2023-01-27T11:57:43.257Z,4.07
2023-01-27T12:01:18.991Z,4.25
2023-01-27T12:05:12.745Z,4.32
2023-01-27T12:08:38.888Z,4.28
2023-01-27T12:12:15.810Z,4.22
2023-01-27T12:15:39.253Z,4.70
2023-01-27T12:19:05.595Z,3.90
2023-01-27T12:22:30.724Z,4.78
2023-01-27T12:26:07.948Z,4.25
2023-01-27T12:29:48.807Z,4.72
2023-01-27T12:33:14.118Z,4.55
2023-01-27T12:36:44.280Z,5.13
2023-01-27T12:44:07.542Z,4.07
2023-01-27T12:47:31.453Z,5.35
2023-01-27T12:50:55.808Z,3.80
2023-01-27T12:54:23.611Z,5.28
2023-01-27T12:57:45.601Z,4.50
2023-01-27T13:01:26.914Z,4.93
2023-01-27T13:04:59.024Z,4.15
2023-01-27T13:08:23.397Z,4.68
2023-01-27T13:11:45.691Z,4.10
2023-01-27T13:15:19.495Z,4.80
2023-01-27T13:18:42.529Z,5.15
2023-01-27T13:22:04.938Z,5.20
2023-01-27T13:25:43.023Z,4.65
2023-01-27T13:29:20.984Z,5.30
2023-01-27T13:32:47.272Z,5.68
2023-01-27T13:36:21.442Z,5.68
2023-01-27T13:40:20.371Z,5.43
2023-01-27T13:43:48.215Z,4.97
2023-01-27T13:47:25.893Z,5.25
2023-01-27T13:51:01.380Z,6.18
2023-01-27T13:54:25.448Z,4.45
2023-01-27T13:58:09.177Z,5.43
2023-01-27T14:01:58.745Z,5.80
2023-01-27T14:05:26.103Z,5.50
2023-01-27T14:08:57.948Z,5.50
2023-01-27T14:12:22.771Z,6.32
2023-01-27T14:15:56.979Z,5.85
2023-01-27T14:19:37.708Z,6.28
2023-01-27T14:26:47.729Z,4.97
2023-01-27T14:30:27.084Z,5.45
2023-01-27T14:33:59.024Z,6.75
2023-01-27T14:37:27.787Z,6.75
2023-01-27T14:41:18.154Z,6.70
2023-01-27T14:44:55.576Z,6.50
2023-01-27T14:48:52.124Z,6.00
2023-01-27T14:52:28.799Z,5.95
2023-01-27T14:56:33.221Z,6.43
2023-01-27T15:00:13.039Z,5.72
2023-01-27T15:03:49.962Z,6.10
2023-01-27T15:07:16.382Z,5.75
2023-01-27T15:10:45.342Z,6.18
2023-01-27T15:14:43.588Z,5.47
2023-01-27T15:18:28.082Z,5.85
2023-01-27T15:22:30.972Z,6.25
2023-01-27T15:26:02.092Z,7.70
2023-01-27T15:29:27.857Z,9.50
2023-01-27T15:32:49.961Z,7.22
2023-01-27T15:36:32.749Z,7.50
2023-01-27T15:40:16.687Z,6.70
2023-01-27T15:43:44.127Z,6.80
2023-01-27T15:47:22.997Z,7.97
2023-01-27T15:50:59.434Z,8.30
2023-01-27T15:54:33.561Z,9.93
2023-01-27T15:58:27.695Z,10.05
2023-01-27T16:02:00.012Z,8.57
2023-01-27T16:05:25.135Z,8.65
2023-01-27T16:08:55.322Z,6.05
2023-01-27T16:12:31.581Z,6.97
2023-01-27T16:16:18.044Z,5.95
2023-01-27T16:19:49.006Z,7.15
2023-01-27T16:23:34.807Z,6.40
2023-01-27T16:27:06.056Z,8.10
2023-01-27T16:30:42.459Z,7.82
2023-01-27T16:34:14.064Z,8.18
2023-01-27T16:37:39.642Z,7.18
2023-01-27T16:41:16.255Z,7.80
2023-01-27T16:44:42.399Z,7.25
2023-01-27T16:48:10.433Z,11.60
2023-01-27T16:51:33.073Z,8.57
2023-01-27T16:54:55.721Z,8.38
2023-01-27T16:58:25.822Z,7.55
2023-01-27T17:01:53.097Z,5.78
2023-01-27T17:05:17.499Z,6.32
2023-01-27T17:08:48.040Z,6.72
2023-01-27T17:12:29.051Z,8.10
2023-01-27T17:15:51.050Z,10.73
2023-01-27T17:19:27.079Z,8.60
2023-01-27T17:22:54.202Z,8.50
2023-01-27T17:26:18.382Z,8.80
2023-01-27T17:29:44.160Z,9.80
2023-01-27T17:33:14.418Z,13.48
2023-01-27T17:36:36.390Z,12.77
2023-01-27T17:40:00.136Z,14.68
2023-01-27T17:43:39.191Z,13.55
2023-01-27T17:47:02.265Z,7.97
2023-01-27T17:50:27.519Z,10.20
2023-01-27T17:53:51.240Z,11.05
2023-01-27T17:57:32.835Z,10.57
2023-01-27T18:00:55.983Z,12.05
2023-01-27T18:04:18.796Z,12.82
2023-01-27T18:07:40.822Z,13.07
2023-01-27T18:11:35.815Z,10.13
2023-01-27T18:14:58.145Z,10.45
2023-01-27T18:18:34.146Z,11.88
2023-01-27T18:22:13.774Z,11.65
2023-01-27T18:25:35.796Z,12.30
2023-01-27T18:29:22.788Z,12.55
2023-01-27T18:32:48.598Z,11.32
2023-01-27T18:36:22.972Z,15.70
2023-01-27T18:39:44.932Z,16.80
2023-01-27T18:43:07.037Z,14.05
2023-01-27T18:46:29.079Z,12.35
2023-01-27T18:50:06.217Z,10.73
2023-01-27T18:53:28.337Z,12.55
2023-01-27T18:56:50.286Z,10.88
2023-01-27T19:00:20.769Z,12.13
2023-01-27T19:03:42.762Z,17.60
2023-01-27T19:07:16.065Z,12.23
2023-01-27T19:10:38.071Z,10.95
2023-01-27T19:14:00.078Z,12.48
2023-01-27T19:17:24.258Z,12.00
2023-01-27T19:20:46.367Z,11.63
2023-01-27T19:24:10.980Z,11.35
2023-01-27T19:27:33.030Z,11.65
2023-01-27T19:30:54.983Z,11.73
2023-01-27T19:34:16.945Z,10.50
2023-01-27T19:37:39.031Z,42.85
2023-01-27T19:41:00.974Z,13.43
2023-01-27T19:44:22.911Z,12.15
2023-01-27T19:47:48.959Z,12.68
2023-01-27T19:51:15.224Z,13.05
2023-01-27T19:54:37.220Z,10.43
2023-01-27T19:57:59.437Z,12.70
2023-01-27T20:01:25.736Z,11.98
2023-01-27T20:04:47.684Z,11.43
2023-01-27T20:08:15.388Z,13.15
2023-01-27T20:11:39.267Z,11.57
2023-01-27T20:15:01.403Z,12.00
2023-01-27T20:18:24.017Z,9.95
2023-01-27T20:21:46.909Z,12.63
2023-01-27T20:25:14.480Z,11.18
2023-01-27T20:28:36.632Z,11.07
2023-01-27T20:31:58.609Z,11.70
2023-01-27T20:35:20.846Z,13.35
2023-01-27T20:38:43.181Z,11.05
2023-01-27T20:42:05.207Z,8.98
2023-01-27T20:45:27.181Z,10.15
2023-01-27T20:48:49.124Z,9.48
2023-01-27T20:52:11.083Z,10.90
2023-01-27T20:55:33.058Z,10.20
2023-01-27T20:58:55.015Z,9.43
2023-01-27T21:02:17.077Z,10.48
2023-01-27T21:05:44.905Z,10.52
2023-01-27T21:09:06.889Z,9.57
2023-01-27T21:12:29.527Z,9.27
2023-01-27T21:15:51.542Z,9.93
2023-01-27T21:19:13.594Z,10.32
2023-01-27T21:22:35.646Z,9.43
2023-01-27T21:26:02.461Z,11.02
2023-01-27T21:29:24.496Z,9.07
2023-01-27T21:32:46.432Z,9.63
2023-01-27T21:36:10.936Z,9.65
2023-01-27T21:39:32.941Z,10.55
2023-01-27T21:43:13.759Z,8.50
2023-01-27T21:46:35.740Z,9.88
2023-01-27T21:50:00.756Z,10.60
2023-01-27T21:53:23.585Z,9.10
2023-01-27T21:56:45.503Z,10.88
2023-01-27T22:00:10.764Z,10.93
2023-01-27T22:03:37.020Z,10.63
2023-01-27T22:06:58.964Z,10.00
2023-01-27T22:10:23.737Z,10.80
2023-01-27T22:13:45.658Z,10.68
2023-01-27T22:17:07.714Z,9.48
2023-01-27T22:20:29.699Z,9.85
2023-01-27T22:23:51.823Z,8.73
2023-01-27T22:27:13.831Z,9.35
2023-01-27T22:30:36.967Z,10.43
2023-01-27T22:33:59.124Z,10.85
2023-01-27T22:37:21.029Z,10.15
2023-01-27T22:40:42.973Z,8.07
2023-01-27T22:44:05.059Z,9.20
2023-01-27T22:47:27.080Z,8.55
2023-01-27T22:50:48.987Z,9.57
2023-01-27T22:54:11.117Z,8.77
2023-01-27T22:57:33.444Z,8.68
2023-01-27T23:00:55.946Z,9.00
2023-01-27T23:04:17.892Z,7.60
2023-01-27T23:07:39.804Z,8.27
2023-01-27T23:11:04.474Z,7.72
2023-01-27T23:14:26.412Z,7.10
2023-01-27T23:17:49.062Z,7.82
2023-01-27T23:21:11.672Z,7.30
2023-01-27T23:24:33.800Z,10.10
2023-01-27T23:27:55.973Z,8.30
2023-01-27T23:31:17.983Z,7.63
2023-01-27T23:34:40.034Z,7.63
2023-01-27T23:38:02.802Z,6.78
2023-01-27T23:41:24.923Z,7.47
2023-01-27T23:44:47.476Z,7.15
2023-01-27T23:48:09.510Z,7.40
2023-01-27T23:51:31.816Z,6.28
2023-01-27T23:54:53.801Z,7.40
2023-01-27T23:58:16.127Z,6.00
